Time;durP1;ratioP1;P1;durP2;ratioP2;P2;SDS_P1;SDS_P2;PMS_P1;PMS_P2;Temp;Humidity;BMP_temperature;BMP_pressure;BME280_temperature;BME280_humidity;BME280_pressure;Samples;Min_cycle;Max_cycle;Signal;HPM_P1;HPM_P2
2022/06/16 00:00:09;;;;;;;4.17;3.87;;;22.00;84.20;;;;;;4987256;28;20455;-69
2022/06/16 00:02:39;;;;;;;5.83;4.20;;;21.90;84.70;;;;;;4986978;28;20435;-70
2022/06/16 00:05:06;;;;;;;8.40;4.00;;;21.80;85.00;;;;;;4987380;28;20794;-70
2022/06/16 00:07:32;;;;;;;5.70;4.03;;;21.80;85.50;;;;;;4986898;28;20427;-70
2022/06/16 00:09:57;;;;;;;4.23;3.80;;;21.90;85.10;;;;;;4987698;28;20497;-70
2022/06/16 00:12:23;;;;;;;5.47;4.53;;;21.90;85.10;;;;;;4987063;28;20267;-69
2022/06/16 00:14:49;;;;;;;3.83;3.50;;;21.90;85.20;;;;;;4988777;28;20211;-70
2022/06/16 00:17:14;;;;;;;3.70;3.40;;;21.80;85.50;;;;;;4987158;28;20184;-69
2022/06/16 00:19:40;;;;;;;3.77;3.47;;;21.70;86.00;;;;;;4987539;28;20184;-70
2022/06/16 00:22:06;;;;;;;3.77;3.47;;;21.70;87.00;;;;;;4986806;28;20180;-69
2022/06/16 00:24:31;;;;;;;3.77;3.43;;;21.60;86.80;;;;;;4987640;28;20218;-70
2022/06/16 00:26:57;;;;;;;4.03;3.63;;;21.60;86.80;;;;;;4988721;28;20239;-70
2022/06/16 00:29:24;;;;;;;4.10;3.50;;;21.60;87.30;;;;;;4993319;28;20717;-70
2022/06/16 00:31:50;;;;;;;6.97;3.70;;;21.70;87.40;;;;;;4986793;28;20212;-70
2022/06/16 00:34:16;;;;;;;5.70;3.37;;;21.70;87.60;;;;;;4968961;28;20459;-69
2022/06/16 00:36:41;;;;;;;3.90;3.50;;;21.60;87.70;;;;;;4985478;28;20432;-70
2022/06/16 00:39:07;;;;;;;6.83;3.90;;;21.60;88.60;;;;;;4986450;28;20191;-70
2022/06/16 00:41:33;;;;;;;4.30;3.60;;;21.50;89.00;;;;;;4986534;28;20280;-69
2022/06/16 00:44:12;;;;;;;4.33;4.03;;;21.50;89.60;;;;;;4986239;28;20197;-70
2022/06/16 00:46:38;;;;;;;3.90;3.50;;;21.40;90.20;;;;;;4986297;28;20716;-69
2022/06/16 00:49:07;;;;;;;3.47;3.17;;;21.30;90.60;;;;;;4986932;28;20502;-70
2022/06/16 00:51:41;;;;;;;3.77;3.40;;;21.40;90.90;;;;;;4986038;28;20196;-70
2022/06/16 00:54:25;;;;;;;3.90;3.50;;;21.40;90.80;;;;;;4986325;28;20471;-71
2022/06/16 00:56:53;;;;;;;4.10;3.70;;;21.40;90.70;;;;;;4986095;28;20416;-70
2022/06/16 00:59:21;;;;;;;4.00;3.70;;;21.50;91.00;;;;;;4986322;28;20406;-70
2022/06/16 01:01:47;;;;;;;4.40;4.00;;;21.50;91.20;;;;;;4986280;28;20778;-71
2022/06/16 01:07:01;;;;;;;4.17;3.87;;;21.40;91.70;;;;;;4986845;28;20497;-69
2022/06/16 01:09:32;;;;;;;4.60;3.80;;;21.40;92.10;;;;;;4986846;28;20424;-70
2022/06/16 01:15:23;;;;;;;3.60;3.27;;;21.40;92.10;;;;;;4986774;28;21001;-70
2022/06/16 01:18:19;;;;;;;6.40;4.07;;;21.50;92.70;;;;;;4987604;28;21393;-70
2022/06/16 01:21:10;;;;;;;4.40;4.00;;;21.50;92.40;;;;;;4987009;28;20431;-70
2022/06/16 01:24:13;;;;;;;3.73;3.53;;;21.40;92.60;;;;;;4986245;28;20839;-70
2022/06/16 01:26:53;;;;;;;4.30;4.00;;;21.30;92.90;;;;;;4984080;28;20447;-68
2022/06/16 01:29:40;;;;;;;4.07;3.63;;;21.20;93.60;;;;;;4985729;28;20412;-69
2022/06/16 01:32:15;;;;;;;4.17;3.70;;;21.10;94.00;;;;;;4985594;28;20873;-69
2022/06/16 01:34:53;;;;;;;4.00;3.70;;;21.10;94.20;;;;;;4985589;28;20478;-69
2022/06/16 01:37:24;;;;;;;3.90;3.30;;;21.10;94.30;;;;;;4985436;28;20998;-69
2022/06/16 01:40:02;;;;;;;3.80;3.50;;;21.10;94.20;;;;;;4985328;28;20400;-69
2022/06/16 01:42:58;;;;;;;4.47;3.63;;;21.10;94.10;;;;;;4985319;28;20426;-69
2022/06/16 01:45:35;;;;;;;3.73;3.03;;;21.10;94.10;;;;;;4985120;28;20788;-69
2022/06/16 01:48:02;;;;;;;3.23;2.93;;;21.00;94.30;;;;;;4985140;28;20454;-68
2022/06/16 01:50:43;;;;;;;5.03;3.93;;;20.90;94.40;;;;;;4985021;28;20849;-69
2022/06/16 01:53:27;;;;;;;3.87;3.47;;;20.80;94.50;;;;;;4984913;28;21029;-69
2022/06/16 01:56:01;;;;;;;4.10;3.70;;;20.80;94.90;;;;;;4984905;28;20501;-69
2022/06/16 01:58:33;;;;;;;4.03;3.30;;;20.80;94.50;;;;;;4985101;28;20445;-69
2022/06/16 02:01:05;;;;;;;4.40;3.03;;;20.70;94.60;;;;;;4984933;28;20408;-68
2022/06/16 02:03:37;;;;;;;3.80;3.10;;;20.60;94.50;;;;;;4984893;28;20510;-69
2022/06/16 02:06:20;;;;;;;3.90;3.20;;;20.50;94.20;;;;;;4984749;28;20447;-68
2022/06/16 02:08:49;;;;;;;3.37;3.07;;;20.50;94.40;;;;;;4984387;28;20419;-69
2022/06/16 02:11:28;;;;;;;3.93;3.10;;;20.50;94.10;;;;;;4984924;28;21035;-69
2022/06/16 02:14:06;;;;;;;5.90;3.50;;;20.50;94.10;;;;;;4985512;28;20457;-69
2022/06/16 02:16:34;;;;;;;6.33;3.63;;;20.60;94.40;;;;;;4985584;28;20451;-69
2022/06/16 02:19:01;;;;;;;4.40;3.50;;;20.50;94.30;;;;;;4984663;28;20546;-69
2022/06/16 02:21:37;;;;;;;3.80;3.50;;;20.40;94.50;;;;;;4984310;28;20412;-68
2022/06/16 02:24:05;;;;;;;3.73;3.40;;;20.40;94.70;;;;;;4983858;28;20435;-69
2022/06/16 02:26:31;;;;;;;4.00;3.70;;;20.30;94.90;;;;;;4984993;28;20423;-70
2022/06/16 02:29:00;;;;;;;4.23;3.83;;;20.30;94.80;;;;;;4966857;28;20952;-70
2022/06/16 02:31:49;;;;;;;4.50;3.77;;;20.40;95.10;;;;;;4984612;28;20414;-70
2022/06/16 02:34:46;;;;;;;3.40;3.10;;;20.40;94.80;;;;;;4947894;28;20447;-69
2022/06/16 02:37:35;;;;;;;4.20;3.80;;;20.30;95.30;;;;;;4984212;28;20867;-70
2022/06/16 02:40:28;;;;;;;4.63;4.23;;;20.30;95.60;;;;;;4984357;28;20928;-69
2022/06/16 02:43:08;;;;;;;4.70;3.40;;;20.30;95.90;;;;;;4984299;28;20427;-70
2022/06/16 02:45:55;;;;;;;4.93;3.90;;;20.30;96.00;;;;;;4983610;28;20852;-69
2022/06/16 02:48:34;;;;;;;3.97;3.57;;;20.30;96.10;;;;;;4984430;28;20407;-69
2022/06/16 02:51:16;;;;;;;4.20;3.80;;;20.20;96.10;;;;;;4984456;28;20656;-70
2022/06/16 02:54:12;;;;;;;3.47;3.27;;;20.20;96.40;;;;;;4984467;28;20804;-70
2022/06/16 02:56:46;;;;;;;3.57;3.27;;;20.20;96.60;;;;;;4984255;28;20746;-70
2022/06/16 02:59:17;;;;;;;4.03;3.43;;;20.10;96.90;;;;;;4984425;28;20460;-69
2022/06/16 03:01:42;;;;;;;3.67;3.37;;;20.20;97.10;;;;;;4984031;28;20495;-71
2022/06/16 03:04:14;;;;;;;3.90;3.50;;;20.20;97.00;;;;;;4984096;28;20607;-69
2022/06/16 03:06:40;;;;;;;5.90;3.30;;;20.20;96.90;;;;;;4984468;28;20196;-69
2022/06/16 03:09:07;;;;;;;5.00;3.77;;;20.20;97.00;;;;;;4984056;28;20422;-70
2022/06/16 03:11:34;;;;;;;4.90;4.40;;;20.20;97.30;;;;;;4984463;28;20419;-68
2022/06/16 03:14:01;;;;;;;4.97;4.47;;;20.20;97.50;;;;;;4983979;28;20858;-70
2022/06/16 03:16:27;;;;;;;4.40;4.00;;;20.00;97.60;;;;;;4983880;28;20558;-70
2022/06/16 03:18:53;;;;;;;4.00;3.70;;;20.00;98.00;;;;;;4984131;28;20415;-69
2022/06/16 03:21:18;;;;;;;4.20;3.67;;;20.00;98.20;;;;;;4987132;28;20411;-69
2022/06/16 03:23:44;;;;;;;4.57;3.90;;;19.90;98.40;;;;;;4987834;28;20196;-71
2022/06/16 03:26:10;;;;;;;4.83;4.40;;;19.80;98.70;;;;;;4987889;28;20676;-69
2022/06/16 03:28:36;;;;;;;3.97;3.67;;;19.70;99.10;;;;;;4970424;28;20632;-70
2022/06/16 03:31:01;;;;;;;3.73;3.43;;;19.80;99.20;;;;;;4987582;28;20900;-69
2022/06/16 03:33:27;;;;;;;4.33;3.90;;;19.80;98.70;;;;;;4970374;28;20208;-70
2022/06/16 03:35:53;;;;;;;4.10;3.70;;;19.90;98.60;;;;;;4987246;28;20616;-69
2022/06/16 03:40:48;;;;;;;4.20;3.87;;;20.00;98.60;;;;;;4987160;28;20400;-70
2022/06/16 03:43:13;;;;;;;4.20;3.90;;;20.00;98.90;;;;;;4987439;28;20432;-70
2022/06/16 03:45:39;;;;;;;3.70;3.40;;;19.90;98.80;;;;;;4987586;28;20238;-69
2022/06/16 03:48:06;;;;;;;6.47;4.00;;;19.90;98.80;;;;;;4986607;28;20187;-69
2022/06/16 03:50:31;;;;;;;4.07;3.77;;;19.90;99.00;;;;;;4987898;28;20696;-69
2022/06/16 03:52:57;;;;;;;4.20;3.90;;;19.80;99.40;;;;;;4970464;28;20543;-69
2022/06/16 03:55:23;;;;;;;3.97;3.67;;;19.90;99.60;;;;;;4987454;28;20193;-68
2022/06/16 03:57:50;;;;;;;4.40;3.97;;;20.00;99.30;;;;;;4987413;28;20169;-68
2022/06/16 04:00:17;;;;;;;4.73;4.37;;;20.00;99.30;;;;;;4987389;28;20912;-69
2022/06/16 04:02:42;;;;;;;4.30;4.00;;;20.00;99.10;;;;;;4986938;28;20440;-70
2022/06/16 04:05:08;;;;;;;4.60;4.20;;;20.20;99.30;;;;;;4986928;28;20822;-69
2022/06/16 04:07:35;;;;;;;4.60;4.20;;;20.30;98.60;;;;;;4986768;28;20181;-69
2022/06/16 04:10:03;;;;;;;4.53;4.00;;;20.50;98.50;;;;;;4987168;28;20177;-70
2022/06/16 04:12:28;;;;;;;5.37;4.53;;;20.40;98.70;;;;;;4969531;28;20419;-69
2022/06/16 04:14:54;;;;;;;4.60;4.30;;;20.30;99.50;;;;;;4986712;28;20458;-69
2022/06/16 04:17:20;;;;;;;4.50;4.13;;;20.30;99.60;;;;;;4986971;28;20187;-69
2022/06/16 04:22:30;;;;;;;4.37;3.97;;;20.50;99.80;;;;;;4986815;28;20187;-69
2022/06/16 04:24:55;;;;;;;4.50;4.10;;;20.70;99.70;;;;;;4986555;28;20416;-70
2022/06/16 04:27:21;;;;;;;4.13;3.83;;;20.70;99.10;;;;;;4986807;28;20181;-71
2022/06/16 04:29:46;;;;;;;4.00;3.70;;;20.90;99.20;;;;;;4986606;28;20185;-70
2022/06/16 04:32:12;;;;;;;3.77;3.37;;;21.20;99.30;;;;;;4985469;28;20185;-70
2022/06/16 04:34:38;;;;;;;5.00;4.60;;;21.30;99.40;;;;;;4986123;28;20215;-68
2022/06/16 04:37:04;;;;;;;3.97;3.63;;;21.50;98.90;;;;;;4986658;28;20200;-70
2022/06/16 04:39:30;;;;;;;6.33;4.50;;;21.60;98.30;;;;;;4986154;28;20411;-69
2022/06/16 04:41:55;;;;;;;6.30;4.90;;;21.70;98.80;;;;;;4986312;28;20506;-69
2022/06/16 04:44:21;;;;;;;4.30;3.90;;;21.90;97.50;;;;;;4986263;28;20203;-70
2022/06/16 04:46:46;;;;;;;4.50;4.13;;;22.00;97.90;;;;;;4986271;28;20706;-69
2022/06/16 04:49:12;;;;;;;4.50;4.20;;;22.00;97.80;;;;;;4985525;28;20645;-69
2022/06/16 04:51:38;;;;;;;3.93;3.40;;;21.90;98.40;;;;;;4986304;28;20208;-70
2022/06/16 04:54:03;;;;;;;4.40;3.67;;;21.80;98.60;;;;;;4986184;28;20564;-70
2022/06/16 04:56:29;;;;;;;4.07;3.50;;;21.80;98.80;;;;;;4988049;28;20571;-70
2022/06/16 04:58:54;;;;;;;4.40;4.00;;;21.90;98.80;;;;;;4987154;28;20173;-70
2022/06/16 05:01:20;;;;;;;4.87;3.70;;;21.90;98.80;;;;;;4985893;28;20254;-69
2022/06/16 05:03:46;;;;;;;4.67;4.27;;;22.00;97.30;;;;;;4968691;28;20204;-69
2022/06/16 05:06:11;;;;;;;4.30;4.00;;;22.10;97.50;;;;;;4986327;28;20669;-69
2022/06/16 05:08:37;;;;;;;4.23;3.70;;;22.20;96.50;;;;;;4985701;28;20652;-69
2022/06/16 05:11:02;;;;;;;5.10;4.00;;;22.20;97.00;;;;;;4985697;28;20180;-69
2022/06/16 05:13:28;;;;;;;6.23;4.13;;;22.30;96.50;;;;;;4985902;28;20251;-69
2022/06/16 05:15:54;;;;;;;6.57;4.30;;;22.10;96.90;;;;;;4985888;28;20223;-69
2022/06/16 05:18:20;;;;;;;5.20;4.77;;;22.00;95.20;;;;;;4986041;28;20175;-68
2022/06/16 05:20:46;;;;;;;5.43;4.70;;;22.10;95.70;;;;;;4986728;28;20995;-69
2022/06/16 05:23:12;;;;;;;6.50;5.90;;;22.00;97.30;;;;;;4985227;28;20435;-69
2022/06/16 05:25:40;;;;;;;6.27;5.70;;;21.70;98.40;;;;;;4985707;28;20308;-70
2022/06/16 05:28:06;;;;;;;6.40;5.70;;;21.90;98.70;;;;;;4985997;28;20804;-68
2022/06/16 05:30:32;;;;;;;6.60;6.00;;;22.00;98.60;;;;;;4985533;28;20514;-69
2022/06/16 05:32:58;;;;;;;6.53;5.90;;;22.10;98.50;;;;;;4985154;28;20891;-68
2022/06/16 05:35:24;;;;;;;5.60;5.10;;;22.10;98.70;;;;;;4985452;28;20458;-68
2022/06/16 05:37:49;;;;;;;5.10;4.70;;;22.00;98.80;;;;;;4985905;28;20215;-69
2022/06/16 05:40:15;;;;;;;6.30;5.00;;;22.10;98.70;;;;;;4985542;28;20669;-68
2022/06/16 05:42:41;;;;;;;5.27;4.87;;;22.40;98.40;;;;;;4985338;28;20193;-69
2022/06/16 05:45:09;;;;;;;4.60;4.20;;;22.60;98.60;;;;;;4985177;28;20181;-69
2022/06/16 05:47:39;;;;;;;5.43;5.00;;;22.80;98.00;;;;;;4984497;28;21032;-69
2022/06/16 05:50:06;;;;;;;7.03;5.00;;;23.00;97.90;;;;;;4985181;28;20861;-69
2022/06/16 05:52:32;;;;;;;4.90;4.50;;;23.10;98.20;;;;;;4985281;28;20518;-69
2022/06/16 05:54:58;;;;;;;5.00;4.60;;;23.30;98.60;;;;;;4985619;28;20610;-69
2022/06/16 05:57:23;;;;;;;4.97;4.50;;;23.50;97.00;;;;;;4985173;28;20721;-68
2022/06/16 05:59:49;;;;;;;5.37;4.93;;;23.70;96.70;;;;;;4985206;28;20173;-68
2022/06/16 06:02:18;;;;;;;6.17;4.77;;;23.80;96.20;;;;;;4984973;28;20183;-68
2022/06/16 06:04:43;;;;;;;6.43;4.57;;;23.80;95.80;;;;;;4967614;28;20595;-68
2022/06/16 06:07:09;;;;;;;7.03;5.70;;;23.80;95.50;;;;;;4985258;28;20431;-69
2022/06/16 06:18:07;;;;;;;5.87;4.40;;;23.80;97.40;;;;;;4985151;28;20398;-66
2022/06/16 06:20:33;;;;;;;5.23;4.73;;;23.90;96.90;;;;;;4984828;28;20404;-68
2022/06/16 06:22:59;;;;;;;4.60;4.03;;;24.00;97.30;;;;;;4984611;28;20247;-71
2022/06/16 06:25:25;;;;;;;4.73;4.03;;;24.00;97.50;;;;;;4984850;28;20227;-71
2022/06/16 06:27:51;;;;;;;4.60;4.00;;;24.20;97.20;;;;;;4984685;28;20204;-71
2022/06/16 06:30:21;;;;;;;6.60;5.03;;;24.30;96.50;;;;;;4984696;28;20195;-70
2022/06/16 06:32:48;;;;;;;4.80;4.40;;;24.50;95.90;;;;;;4984538;28;20431;-70
2022/06/16 06:35:19;;;;;;;6.03;4.00;;;24.70;95.50;;;;;;4984590;28;21473;-70
2022/06/16 06:37:45;;;;;;;5.30;4.50;;;24.80;95.90;;;;;;4984519;28;21259;-70
2022/06/16 06:40:20;;;;;;;6.80;5.03;;;25.00;95.20;;;;;;4984527;28;20772;-71
2022/06/16 06:42:46;;;;;;;5.77;4.43;;;25.00;91.90;;;;;;4984508;28;20423;-70
2022/06/16 06:45:12;;;;;;;4.80;4.40;;;24.80;91.10;;;;;;4984370;28;20424;-71
2022/06/16 06:47:38;;;;;;;5.00;4.60;;;24.80;91.80;;;;;;4983531;28;20493;-70
2022/06/16 06:50:04;;;;;;;4.70;4.30;;;25.10;92.40;;;;;;4984275;28;20192;-70
2022/06/16 06:52:29;;;;;;;5.00;4.47;;;25.20;91.50;;;;;;4984459;28;20195;-70
2022/06/16 06:54:55;;;;;;;5.27;4.33;;;25.30;89.50;;;;;;4984965;28;20463;-71
2022/06/16 06:57:23;;;;;;;4.67;4.20;;;25.20;90.50;;;;;;4988406;28;20185;-70
2022/06/16 06:59:49;;;;;;;4.97;4.50;;;25.30;88.10;;;;;;4988118;28;20175;-71
2022/06/16 07:02:16;;;;;;;4.00;3.70;;;24.80;88.50;;;;;;4988135;28;20965;-71
2022/06/16 07:04:42;;;;;;;4.60;4.20;;;25.00;90.20;;;;;;4988096;28;20439;-71
2022/06/16 07:07:14;;;;;;;4.60;4.23;;;25.50;90.30;;;;;;4988133;28;20473;-70
2022/06/16 07:09:40;;;;;;;4.80;4.37;;;25.80;87.00;;;;;;4988059;28;20594;-70
2022/06/16 07:12:13;;;;;;;4.67;4.27;;;25.50;85.20;;;;;;4988285;28;21515;-70
2022/06/16 07:14:44;;;;;;;5.43;4.10;;;25.50;88.60;;;;;;4987636;28;20518;-69
2022/06/16 07:17:10;;;;;;;5.00;4.60;;;25.70;87.70;;;;;;4987796;28;20791;-70
2022/06/16 07:19:36;;;;;;;5.07;4.67;;;25.40;85.60;;;;;;4988188;28;20426;-70
2022/06/16 07:22:06;;;;;;;5.47;5.07;;;24.80;88.00;;;;;;4988087;28;20426;-70
2022/06/16 07:24:32;;;;;;;5.70;4.53;;;24.60;90.50;;;;;;4987557;28;20436;-70
2022/06/16 07:26:58;;;;;;;5.37;4.90;;;24.50;91.80;;;;;;4987629;28;20425;-70
2022/06/16 07:29:23;;;;;;;5.63;5.13;;;24.50;91.90;;;;;;4987940;28;20200;-70
2022/06/16 07:31:49;;;;;;;4.73;4.30;;;24.60;92.00;;;;;;4987520;28;20184;-71
2022/06/16 07:34:15;;;;;;;5.67;5.03;;;25.10;91.30;;;;;;4987434;28;20201;-70
2022/06/16 07:36:41;;;;;;;4.83;4.43;;;25.30;90.50;;;;;;4987147;28;20193;-71
2022/06/16 07:39:07;;;;;;;7.53;4.60;;;25.50;90.50;;;;;;4987419;28;20276;-70
2022/06/16 07:41:36;;;;;;;6.13;5.47;;;25.20;90.40;;;;;;4987288;28;20840;-70
2022/06/16 07:44:19;;;;;;;4.43;4.13;;;25.00;90.70;;;;;;4969692;28;20960;-69
2022/06/16 07:46:47;;;;;;;6.80;5.37;;;25.00;90.60;;;;;;4987468;28;20416;-70
2022/06/16 07:49:15;;;;;;;4.90;4.50;;;24.90;90.60;;;;;;4986539;28;20459;-70
2022/06/16 07:51:42;;;;;;;5.33;4.63;;;25.00;90.60;;;;;;4987125;28;20443;-70
2022/06/16 07:54:08;;;;;;;4.67;4.27;;;25.20;90.90;;;;;;4986028;28;20543;-70
2022/06/16 07:56:34;;;;;;;5.17;4.67;;;25.50;90.00;;;;;;4987233;28;20459;-70
2022/06/16 07:58:59;;;;;;;5.10;4.60;;;25.50;90.10;;;;;;4986989;28;20998;-70
2022/06/16 08:01:25;;;;;;;5.30;4.80;;;25.40;90.30;;;;;;4986302;28;20180;-70
2022/06/16 08:03:51;;;;;;;5.47;4.87;;;25.10;90.60;;;;;;4986888;28;20210;-69
2022/06/16 08:06:18;;;;;;;5.77;5.37;;;25.20;90.90;;;;;;4986657;28;20220;-70
2022/06/16 08:08:44;;;;;;;5.80;5.30;;;25.20;91.10;;;;;;4986775;28;20184;-69
2022/06/16 08:13:57;;;;;;;4.53;4.13;;;25.40;91.70;;;;;;4986864;28;20881;-69
2022/06/16 08:16:23;;;;;;;6.07;5.00;;;25.60;92.00;;;;;;4986306;28;20466;-70
2022/06/16 08:18:49;;;;;;;5.67;5.17;;;25.60;92.00;;;;;;4986726;28;20766;-69
2022/06/16 08:21:15;;;;;;;5.90;5.40;;;25.60;91.90;;;;;;4986767;28;20909;-69
2022/06/16 08:23:41;;;;;;;5.77;5.30;;;25.70;92.10;;;;;;4986249;28;20551;-70
2022/06/16 08:26:07;;;;;;;5.60;5.20;;;25.90;92.10;;;;;;4986742;28;20511;-71
2022/06/16 08:28:33;;;;;;;10.07;5.00;;;26.20;91.20;;;;;;4986739;28;20609;-70
2022/06/16 08:31:01;;;;;;;6.87;5.10;;;26.20;90.10;;;;;;4986333;28;20514;-70
2022/06/16 08:33:27;;;;;;;5.60;5.10;;;25.90;88.70;;;;;;4986550;28;20695;-70
2022/06/16 08:35:53;;;;;;;5.80;4.73;;;25.80;89.70;;;;;;4986599;28;20470;-70
2022/06/16 08:38:18;;;;;;;5.83;5.00;;;25.90;89.70;;;;;;4986175;28;20416;-70
2022/06/16 08:40:47;;;;;;;5.10;4.60;;;25.90;89.80;;;;;;4986258;28;20219;-70
2022/06/16 08:43:31;;;;;;;5.47;4.67;;;26.10;87.90;;;;;;4986168;28;20207;-70
2022/06/16 08:46:00;;;;;;;5.23;4.23;;;26.40;87.40;;;;;;4986285;28;20404;-69
2022/06/16 08:48:28;;;;;;;5.50;4.70;;;26.60;86.50;;;;;;4985427;28;21598;-69
2022/06/16 08:51:03;;;;;;;5.43;4.93;;;26.60;83.80;;;;;;4986119;28;20987;-69
2022/06/16 08:53:52;;;;;;;6.27;5.57;;;26.40;84.00;;;;;;4985947;28;20434;-69
2022/06/16 08:56:39;;;;;;;4.43;4.03;;;26.40;83.60;;;;;;4969121;28;20455;-69
2022/06/16 08:59:38;;;;;;;5.33;4.50;;;26.40;82.50;;;;;;4986453;28;20419;-70
2022/06/16 09:02:31;;;;;;;4.80;3.83;;;26.10;84.10;;;;;;4986092;28;20403;-70
2022/06/16 09:05:30;;;;;;;5.70;4.40;;;26.20;83.10;;;;;;4940251;28;20423;-70
2022/06/16 09:08:14;;;;;;;4.50;4.20;;;26.50;84.40;;;;;;4899301;28;20500;-69
2022/06/16 09:10:49;;;;;;;5.73;5.17;;;26.80;83.70;;;;;;4986035;28;20498;-70
2022/06/16 09:13:42;;;;;;;4.33;3.90;;;26.90;82.80;;;;;;4985426;28;20465;-68
2022/06/16 09:16:32;;;;;;;6.13;5.20;;;27.00;80.80;;;;;;4985997;28;20468;-70
2022/06/16 09:19:06;;;;;;;4.60;4.20;;;27.00;82.30;;;;;;4984929;28;20939;-69
2022/06/16 09:21:41;;;;;;;5.40;4.90;;;27.10;80.70;;;;;;4985439;28;20422;-69
2022/06/16 09:24:33;;;;;;;4.50;4.10;;;27.20;79.60;;;;;;4985399;28;20501;-69
2022/06/16 09:27:09;;;;;;;4.63;4.33;;;26.90;80.30;;;;;;4985304;28;20415;-68
2022/06/16 09:29:56;;;;;;;5.63;4.23;;;26.80;82.60;;;;;;4985532;28;20765;-69
2022/06/16 09:32:33;;;;;;;4.60;4.20;;;27.00;83.40;;;;;;4985339;28;20415;-69
2022/06/16 09:35:13;;;;;;;6.00;4.90;;;27.10;83.60;;;;;;4985338;28;20543;-69
2022/06/16 09:37:58;;;;;;;5.90;5.17;;;27.20;83.60;;;;;;4985402;28;20422;-70
2022/06/16 09:40:39;;;;;;;5.00;4.50;;;27.30;84.90;;;;;;4984513;28;20416;-69
2022/06/16 09:43:16;;;;;;;5.93;4.83;;;27.30;83.50;;;;;;4985109;28;20810;-69
2022/06/16 09:45:41;;;;;;;4.80;4.40;;;27.30;82.40;;;;;;4985311;28;20481;-67
2022/06/16 09:48:31;;;;;;;4.93;4.47;;;27.30;82.70;;;;;;4984856;28;20427;-68
2022/06/16 09:51:27;;;;;;;8.40;4.27;;;27.40;82.00;;;;;;4985493;28;20624;-68
2022/06/16 09:54:05;;;;;;;5.07;4.67;;;27.40;82.60;;;;;;4985024;28;20493;-69
2022/06/16 09:56:37;;;;;;;4.93;4.53;;;27.50;82.20;;;;;;4985288;28;21417;-68
2022/06/16 09:59:16;;;;;;;7.80;5.00;;;27.30;83.30;;;;;;4985031;28;20411;-69
2022/06/16 10:01:56;;;;;;;8.43;4.93;;;27.30;84.30;;;;;;4984153;28;20416;-69
2022/06/16 10:04:22;;;;;;;5.23;4.73;;;27.30;84.30;;;;;;4984890;28;20440;-69
2022/06/16 10:07:08;;;;;;;5.17;4.43;;;27.40;83.60;;;;;;4984989;28;20430;-68
2022/06/16 10:10:05;;;;;;;6.70;4.73;;;27.50;84.00;;;;;;4985053;28;20188;-69
2022/06/16 10:12:36;;;;;;;6.27;5.03;;;27.70;83.60;;;;;;4985141;28;20441;-69
2022/06/16 10:15:19;;;;;;;7.70;4.40;;;27.70;83.30;;;;;;4984879;28;20486;-69
2022/06/16 10:17:46;;;;;;;4.60;4.30;;;27.20;84.10;;;;;;4984715;28;20499;-69
2022/06/16 10:20:14;;;;;;;5.20;4.80;;;27.10;84.80;;;;;;4984648;28;20412;-70
2022/06/16 10:22:45;;;;;;;4.80;4.40;;;27.10;85.10;;;;;;4984832;28;20819;-69
2022/06/16 10:25:19;;;;;;;5.07;4.50;;;27.10;83.50;;;;;;4985084;28;20467;-68
2022/06/16 10:27:53;;;;;;;6.37;5.00;;;27.20;83.50;;;;;;4984717;28;20412;-69
2022/06/16 10:30:18;;;;;;;5.57;5.07;;;27.40;83.50;;;;;;4984463;28;20824;-70
2022/06/16 10:32:47;;;;;;;4.53;4.13;;;27.40;83.40;;;;;;4984294;28;20502;-69
2022/06/16 10:35:20;;;;;;;5.97;5.27;;;27.40;84.40;;;;;;4966623;28;20204;-68
2022/06/16 10:37:49;;;;;;;5.17;4.33;;;27.60;84.20;;;;;;4984454;28;21449;-68
2022/06/16 10:40:40;;;;;;;4.80;4.50;;;27.40;83.60;;;;;;4966553;28;20416;-71
2022/06/16 10:43:11;;;;;;;5.10;4.50;;;27.50;84.00;;;;;;4984185;28;20431;-69
2022/06/16 10:45:38;;;;;;;4.87;4.47;;;27.70;83.90;;;;;;4983309;28;20463;-70
2022/06/16 10:48:28;;;;;;;7.00;5.50;;;27.90;82.70;;;;;;4984539;28;20432;-70
2022/06/16 10:51:24;;;;;;;4.50;4.20;;;28.10;82.60;;;;;;4984171;28;20415;-70
2022/06/16 10:54:00;;;;;;;4.80;4.30;;;28.00;81.60;;;;;;4982673;28;20461;-70
2022/06/16 10:56:27;;;;;;;4.87;4.43;;;27.90;81.80;;;;;;4984179;28;20529;-69
2022/06/16 10:58:58;;;;;;;6.47;4.73;;;27.90;82.50;;;;;;4984336;28;20418;-69
2022/06/16 11:01:33;;;;;;;6.60;4.33;;;28.00;82.60;;;;;;4983854;28;20420;-70
2022/06/16 11:04:09;;;;;;;4.47;4.07;;;28.10;80.40;;;;;;4984071;28;20439;-70
2022/06/16 11:06:39;;;;;;;4.73;4.27;;;28.10;80.60;;;;;;4984223;28;21113;-70
2022/06/16 11:09:07;;;;;;;6.50;5.00;;;28.30;81.60;;;;;;4984166;28;20499;-70
2022/06/16 11:11:55;;;;;;;5.13;4.73;;;28.50;80.50;;;;;;4984118;28;20415;-70
2022/06/16 11:14:40;;;;;;;4.30;3.90;;;28.40;79.60;;;;;;4983774;28;20839;-70
2022/06/16 11:17:37;;;;;;;5.70;4.30;;;28.50;78.20;;;;;;4983945;28;20509;-70
2022/06/16 11:20:21;;;;;;;6.60;4.70;;;28.60;77.50;;;;;;4983991;28;20499;-70
2022/06/16 11:22:49;;;;;;;4.43;4.03;;;28.50;78.00;;;;;;4984038;28;20436;-70
2022/06/16 11:25:18;;;;;;;4.40;4.10;;;28.40;76.60;;;;;;4983824;28;20408;-70
2022/06/16 11:27:59;;;;;;;4.80;4.40;;;28.60;77.50;;;;;;4985767;28;20412;-70
2022/06/16 11:30:43;;;;;;;5.77;4.20;;;28.70;78.10;;;;;;4983852;28;20416;-68
2022/06/16 11:36:39;;;;;;;5.07;4.57;;;30.20;73.90;;;;;;4984515;28;20446;-70
2022/06/16 11:39:21;;;;;;;5.13;4.63;;;31.60;69.80;;;;;;4984084;28;20502;-68
2022/06/16 11:41:50;;;;;;;4.13;3.73;;;32.00;67.10;;;;;;4985983;28;20411;-71
2022/06/16 11:44:43;;;;;;;4.33;3.50;;;32.20;66.50;;;;;;4987726;28;20551;-71
2022/06/16 11:47:41;;;;;;;4.03;3.53;;;32.70;65.10;;;;;;4987018;28;20412;-69
2022/06/16 11:50:33;;;;;;;4.80;4.17;;;32.50;64.30;;;;;;4986883;28;20961;-69
2022/06/16 11:53:13;;;;;;;5.70;4.67;;;32.00;64.40;;;;;;4987089;28;20432;-68
2022/06/16 11:55:56;;;;;;;3.90;3.60;;;31.70;64.60;;;;;;4987568;28;20459;-68
2022/06/16 11:58:59;;;;;;;4.57;3.60;;;32.40;63.30;;;;;;4987201;28;20423;-69
2022/06/16 12:01:40;;;;;;;3.87;3.57;;;33.00;60.80;;;;;;4987219;28;20422;-69
2022/06/16 12:04:24;;;;;;;5.73;3.70;;;33.10;59.20;;;;;;4986929;28;20435;-69
2022/06/16 12:07:05;;;;;;;3.97;3.57;;;33.10;59.20;;;;;;4986705;28;20431;-69
2022/06/16 12:09:56;;;;;;;3.83;3.03;;;32.80;59.50;;;;;;4986907;28;20944;-69
2022/06/16 12:12:33;;;;;;;5.80;3.63;;;33.30;57.40;;;;;;4986681;28;20482;-69
2022/06/16 12:15:21;;;;;;;4.60;3.80;;;33.10;57.90;;;;;;4986608;28;20419;-68
2022/06/16 12:17:55;;;;;;;6.87;3.73;;;33.40;55.80;;;;;;4986459;28;20412;-68
2022/06/16 12:20:28;;;;;;;7.70;3.40;;;33.90;55.60;;;;;;4986517;28;20420;-68
2022/06/16 12:23:05;;;;;;;4.13;3.63;;;33.70;55.80;;;;;;4986671;28;20920;-68
2022/06/16 12:25:55;;;;;;;4.83;3.90;;;32.80;56.30;;;;;;4987040;28;20424;-69
2022/06/16 12:28:44;;;;;;;4.87;3.50;;;33.30;56.30;;;;;;4986827;28;20404;-69
2022/06/16 12:31:14;;;;;;;6.30;3.60;;;33.40;56.70;;;;;;4986981;28;20426;-70
2022/06/16 12:33:45;;;;;;;4.03;3.60;;;34.00;56.20;;;;;;4986458;28;20451;-70
2022/06/16 12:36:31;;;;;;;3.50;3.20;;;34.40;56.00;;;;;;4985049;28;20577;-70
2022/06/16 12:39:08;;;;;;;6.73;3.40;;;34.90;53.70;;;;;;4987085;28;20923;-69
2022/06/16 12:41:42;;;;;;;3.90;3.20;;;34.30;52.20;;;;;;4986485;28;20415;-69
2022/06/16 12:44:15;;;;;;;3.70;3.40;;;33.20;54.40;;;;;;4986394;28;20976;-69
2022/06/16 12:46:47;;;;;;;4.83;3.20;;;33.00;54.60;;;;;;4985992;28;20408;-69
2022/06/16 12:49:18;;;;;;;3.70;3.03;;;33.50;54.50;;;;;;4986131;28;20399;-71
2022/06/16 12:51:49;;;;;;;4.63;4.17;;;34.30;52.80;;;;;;4985906;28;21531;-68
2022/06/16 12:54:53;;;;;;;4.00;3.20;;;34.60;51.80;;;;;;4986076;28;20440;-69
2022/06/16 12:57:24;;;;;;;4.40;3.30;;;34.80;51.20;;;;;;4942736;28;20510;-68
2022/06/16 12:59:57;;;;;;;3.50;3.20;;;34.40;51.50;;;;;;4968905;28;20404;-69
2022/06/16 13:02:28;;;;;;;3.40;3.10;;;34.30;51.10;;;;;;4986041;28;20503;-69
2022/06/16 13:04:57;;;;;;;4.67;3.40;;;34.30;51.80;;;;;;4985682;28;20400;-70
2022/06/16 13:07:27;;;;;;;4.03;3.03;;;34.70;52.10;;;;;;4968407;28;20420;-70
2022/06/16 13:09:52;;;;;;;3.97;3.23;;;35.20;49.40;;;;;;4986052;28;20415;-70
2022/06/16 13:12:26;;;;;;;5.93;3.40;;;35.20;48.60;;;;;;4985480;28;20427;-70
2022/06/16 13:14:58;;;;;;;3.90;3.47;;;35.50;47.60;;;;;;4986068;28;20185;-71
2022/06/16 13:17:29;;;;;;;3.87;2.50;;;35.80;45.40;;;;;;4985806;28;20447;-70
2022/06/16 13:20:11;;;;;;;3.80;3.50;;;35.90;45.20;;;;;;4985249;28;20408;-70
2022/06/16 13:22:43;;;;;;;4.90;2.37;;;36.10;45.00;;;;;;4985328;28;20434;-71
2022/06/16 13:25:14;;;;;;;3.50;2.90;;;35.70;45.80;;;;;;4985768;28;20451;-71
2022/06/16 13:27:52;;;;;;;5.53;3.63;;;36.10;45.40;;;;;;4968147;28;20482;-68
2022/06/16 13:30:39;;;;;;;4.93;3.07;;;35.70;45.90;;;;;;4967959;28;20427;-70
2022/06/16 13:33:08;;;;;;;3.50;3.20;;;35.60;45.70;;;;;;4985465;28;20505;-68
2022/06/16 13:35:39;;;;;;;3.00;2.30;;;35.40;45.80;;;;;;4983305;28;20467;-71
2022/06/16 13:38:05;;;;;;;3.73;3.43;;;34.90;45.50;;;;;;4984006;28;20482;-69
2022/06/16 13:40:42;;;;;;;6.30;3.43;;;34.10;45.70;;;;;;4985728;28;20427;-69